Time;durP1;ratioP1;P1;durP2;ratioP2;P2;SDS_P1;SDS_P2;PMS_P1;PMS_P2;Temp;Humidity;BMP_temperature;BMP_pressure;BME280_temperature;BME280_humidity;BME280_pressure;Samples;Min_cycle;Max_cycle;Signal;HPM_P1;HPM_P2
2023/10/22 00:02:18;;;;;;;19.00;6.10;;;;;;;23.42;57.23;101216.81;106436;1260;25496;-65
2023/10/22 00:04:45;;;;;;;17.90;6.50;;;;;;;23.44;57.33;101214.42;106758;1263;25376;-66
2023/10/22 00:07:14;;;;;;;17.90;6.20;;;;;;;23.44;57.36;101212.48;106827;1262;25370;-68
2023/10/22 00:09:41;;;;;;;22.30;6.30;;;;;;;23.44;57.43;101213.17;106513;1273;25406;-70
2023/10/22 00:12:08;;;;;;;17.10;5.90;;;;;;;23.44;57.54;101210.85;106741;1262;22546;-65
2023/10/22 00:14:37;;;;;;;15.70;5.70;;;;;;;23.45;57.54;101208.50;106843;1258;25428;-72
2023/10/22 00:17:04;;;;;;;16.40;5.60;;;;;;;23.46;57.50;101204.55;106598;1264;25344;-68
2023/10/22 00:19:45;;;;;;;12.40;5.40;;;;;;;23.45;57.66;101201.61;106414;1272;25317;-67
2023/10/22 00:22:14;;;;;;;16.30;5.70;;;;;;;23.46;57.61;101198.71;106314;1267;25393;-68
2023/10/22 00:24:41;;;;;;;15.30;5.60;;;;;;;23.47;57.59;101199.90;106630;1262;25416;-68
2023/10/22 00:27:08;;;;;;;17.50;5.40;;;;;;;23.47;57.75;101196.70;106763;1265;22663;-65
2023/10/22 00:29:35;;;;;;;13.20;5.40;;;;;;;23.47;57.70;101197.22;106443;1262;402872;-74
2023/10/22 00:32:02;;;;;;;13.20;5.10;;;;;;;23.48;57.82;101197.51;106755;1270;25386;-67
2023/10/22 00:34:30;;;;;;;11.60;5.20;;;;;;;23.47;57.90;101196.83;106432;1272;25457;-67
2023/10/22 00:36:57;;;;;;;15.30;5.70;;;;;;;23.48;57.96;101196.08;106724;1263;22533;-64
2023/10/22 00:39:24;;;;;;;13.70;5.60;;;;;;;23.48;58.02;101195.38;106847;1260;23315;-72
2023/10/22 00:41:51;;;;;;;15.80;6.00;;;;;;;23.48;58.00;101193.75;106673;1268;22533;-66
2023/10/22 00:44:18;;;;;;;19.70;5.70;;;;;;;23.48;58.08;101195.72;106391;1272;25386;-66
2023/10/22 00:46:46;;;;;;;15.60;4.70;;;;;;;23.48;58.17;101193.09;106656;1270;25427;-72
2023/10/22 00:49:13;;;;;;;15.90;5.80;;;;;;;23.48;58.17;101196.63;106585;1280;22557;-70
2023/10/22 00:51:40;;;;;;;17.80;6.70;;;;;;;23.48;58.35;101195.38;106512;1258;24306;-68
2023/10/22 00:54:08;;;;;;;18.70;6.20;;;;;;;23.47;58.34;101198.25;106354;1259;24430;-68
2023/10/22 00:56:35;;;;;;;13.60;5.10;;;;;;;23.47;58.22;101193.30;106372;1259;23900;-67
2023/10/22 00:59:02;;;;;;;12.50;5.90;;;;;;;23.46;58.35;101196.91;106409;1259;25386;-69
2023/10/22 01:01:30;;;;;;;15.50;5.80;;;;;;;23.46;58.54;101193.53;106303;1256;24228;-67
2023/10/22 01:03:57;;;;;;;14.10;5.20;;;;;;;23.46;58.53;101200.28;106312;1260;22661;-64
2023/10/22 01:06:24;;;;;;;12.50;5.30;;;;;;;23.45;58.59;101199.46;106148;1262;22584;-64
2023/10/22 01:08:52;;;;;;;21.90;6.50;;;;;;;23.45;58.65;101199.67;106623;1257;25358;-69
2023/10/22 01:11:19;;;;;;;20.90;7.70;;;;;;;23.45;58.72;101198.77;106645;1260;25401;-66
2023/10/22 01:13:46;;;;;;;13.40;6.00;;;;;;;23.45;58.87;101199.85;106703;1262;25504;-68
2023/10/22 01:16:13;;;;;;;10.50;5.00;;;;;;;23.45;58.81;101197.36;106389;1272;25372;-68
2023/10/22 01:18:40;;;;;;;18.50;6.20;;;;;;;23.44;58.85;101197.57;106535;1259;25401;-66
2023/10/22 01:21:07;;;;;;;14.30;5.50;;;;;;;23.45;58.95;101199.32;106298;1280;25344;-65
2023/10/22 01:23:36;;;;;;;13.00;5.90;;;;;;;23.44;58.92;101197.23;106638;1259;25499;-68
2023/10/22 01:26:06;;;;;;;16.70;5.60;;;;;;;23.44;58.77;101193.49;106669;1262;25386;-66
2023/10/22 01:28:34;;;;;;;19.50;6.70;;;;;;;23.44;59.02;101194.55;106684;1257;23228;-65
2023/10/22 01:31:01;;;;;;;14.60;6.30;;;;;;;23.45;59.05;101199.98;106780;1262;25368;-64
2023/10/22 01:33:28;;;;;;;15.20;6.00;;;;;;;23.46;59.00;101198.02;106722;1259;25426;-67
2023/10/22 01:35:56;;;;;;;11.60;5.50;;;;;;;23.46;59.15;101201.34;106641;1262;22534;-68
2023/10/22 01:38:24;;;;;;;12.80;5.40;;;;;;;23.46;59.20;101202.24;106696;1262;25526;-68
2023/10/22 01:40:50;;;;;;;14.00;4.80;;;;;;;23.46;59.14;101201.70;106767;1259;25279;-65
2023/10/22 01:43:17;;;;;;;9.60;5.50;;;;;;;23.47;59.08;101203.97;106634;1270;25358;-65
2023/10/22 01:45:45;;;;;;;15.80;5.80;;;;;;;23.47;59.14;101204.45;106628;1258;25438;-69
2023/10/22 01:48:12;;;;;;;11.40;5.60;;;;;;;23.49;58.96;101206.98;106739;1273;25395;-69
2023/10/22 01:50:39;;;;;;;16.80;5.50;;;;;;;23.51;59.00;101206.71;106717;1261;22546;-66
2023/10/22 01:53:06;;;;;;;16.10;6.50;;;;;;;23.51;59.23;101208.42;106738;1259;25389;-65
2023/10/22 01:55:33;;;;;;;20.40;7.70;;;;;;;23.51;59.40;101205.06;106507;1263;25370;-67
2023/10/22 01:58:00;;;;;;;14.90;6.10;;;;;;;23.52;59.29;101206.42;106751;1259;25426;-67
2023/10/22 02:00:27;;;;;;;12.00;5.50;;;;;;;23.62;59.14;101208.36;106673;1270;25431;-64
2023/10/22 02:02:54;;;;;;;11.50;5.20;;;;;;;23.68;59.01;101212.05;106708;1262;25424;-65
2023/10/22 02:05:21;;;;;;;13.90;5.80;;;;;;;23.69;58.90;101212.69;106754;1259;25383;-68
2023/10/22 02:07:48;;;;;;;12.40;5.50;;;;;;;23.70;58.82;101212.61;106767;1262;25357;-65
2023/10/22 02:10:15;;;;;;;16.10;6.70;;;;;;;23.70;58.79;101214.90;106296;1272;25383;-68
2023/10/22 02:12:42;;;;;;;9.00;5.30;;;;;;;23.70;58.71;101217.40;106629;1270;25383;-67
2023/10/22 02:15:10;;;;;;;14.40;5.80;;;;;;;23.70;58.52;101216.48;106697;1262;25373;-66
2023/10/22 02:17:39;;;;;;;10.80;5.50;;;;;;;23.70;58.40;101215.42;106739;1258;22558;-66
2023/10/22 02:20:09;;;;;;;7.60;4.90;;;;;;;23.71;58.13;101215.75;106733;1262;25495;-68
2023/10/22 02:22:37;;;;;;;12.30;6.00;;;;;;;23.71;57.88;101218.38;106401;1268;24259;-71
2023/10/22 02:25:05;;;;;;;8.50;5.50;;;;;;;23.65;57.73;101218.80;106757;1260;22536;-69
2023/10/22 02:27:33;;;;;;;9.20;4.70;;;;;;;23.56;57.60;101219.10;106647;1268;22646;-70
2023/10/22 02:29:59;;;;;;;13.00;5.10;;;;;;;23.55;57.69;101220.20;106374;1261;22532;-66
2023/10/22 02:32:27;;;;;;;10.80;4.90;;;;;;;23.56;57.57;101219.07;106292;1276;25479;-70
2023/10/22 02:34:54;;;;;;;14.30;5.90;;;;;;;23.58;57.56;101221.98;106291;1265;25363;-70
2023/10/22 02:37:21;;;;;;;15.10;4.80;;;;;;;23.59;57.39;101220.13;106296;1259;25505;-68
2023/10/22 02:39:48;;;;;;;15.70;5.80;;;;;;;23.61;57.60;101216.83;106432;1262;25386;-66
2023/10/22 02:42:15;;;;;;;17.80;5.90;;;;;;;23.62;57.82;101216.89;106511;1261;25497;-67
2023/10/22 02:44:42;;;;;;;18.70;6.10;;;;;;;23.63;57.83;101222.84;106642;1268;25358;-69
2023/10/22 02:47:09;;;;;;;15.40;5.90;;;;;;;23.64;58.18;101221.03;106395;1265;25499;-64
2023/10/22 02:49:36;;;;;;;13.30;5.70;;;;;;;23.63;58.18;101221.92;106715;1269;24197;-67
2023/10/22 02:52:05;;;;;;;17.10;6.30;;;;;;;23.64;58.31;101225.26;106439;1267;22667;-73
2023/10/22 02:54:32;;;;;;;10.00;5.60;;;;;;;23.64;58.35;101222.80;106780;1258;23884;-68
2023/10/22 02:56:59;;;;;;;9.50;5.30;;;;;;;23.64;58.60;101225.65;105962;1257;1002945;-64
2023/10/22 02:59:27;;;;;;;13.90;5.70;;;;;;;23.63;58.84;101229.92;106761;1259;25376;-68
2023/10/22 03:01:54;;;;;;;12.90;5.00;;;;;;;23.62;58.85;101228.72;106486;1259;25357;-67
2023/10/22 03:04:21;;;;;;;17.00;6.10;;;;;;;23.61;59.09;101229.91;106668;1265;25344;-67
2023/10/22 03:06:48;;;;;;;13.20;6.20;;;;;;;23.58;59.19;101229.23;106465;1263;25358;-66
2023/10/22 03:09:15;;;;;;;16.80;5.70;;;;;;;23.57;59.21;101228.23;106779;1262;25438;-67
2023/10/22 03:11:42;;;;;;;10.90;6.20;;;;;;;23.56;59.24;101230.41;106482;1265;25357;-65
2023/10/22 03:14:09;;;;;;;14.00;5.10;;;;;;;23.56;59.38;101231.66;106781;1265;25495;-69
2023/10/22 03:16:36;;;;;;;15.20;5.90;;;;;;;23.55;59.46;101232.23;106665;1262;25376;-68
2023/10/22 03:19:04;;;;;;;18.80;6.00;;;;;;;23.55;59.60;101235.61;106706;1261;25370;-67
2023/10/22 03:21:35;;;;;;;15.60;5.80;;;;;;;23.55;59.76;101236.83;106777;1261;25522;-66
2023/10/22 03:24:03;;;;;;;20.50;6.20;;;;;;;23.55;59.94;101238.09;106786;1270;25367;-69
2023/10/22 03:26:31;;;;;;;15.80;5.70;;;;;;;23.59;59.89;101236.21;106783;1262;24250;-64
2023/10/22 03:28:58;;;;;;;20.40;6.20;;;;;;;23.58;59.91;101234.71;106677;1262;25389;-67
2023/10/22 03:31:25;;;;;;;13.00;6.10;;;;;;;23.55;60.13;101234.73;106795;1262;25454;-63
2023/10/22 03:33:52;;;;;;;12.00;6.20;;;;;;;23.55;60.22;101233.85;106693;1265;25376;-64
2023/10/22 03:36:19;;;;;;;14.50;6.00;;;;;;;23.54;60.17;101232.85;106601;1261;25425;-62
2023/10/22 03:38:46;;;;;;;18.50;6.70;;;;;;;23.53;60.41;101228.48;106683;1259;25367;-65
2023/10/22 03:41:14;;;;;;;19.00;6.50;;;;;;;23.53;60.61;101229.76;106675;1275;25815;-64
2023/10/22 03:43:41;;;;;;;9.70;5.80;;;;;;;23.52;60.86;101224.11;106721;1262;25395;-67
2023/10/22 03:46:09;;;;;;;19.70;6.00;;;;;;;23.51;60.87;101225.25;106770;1261;25496;-62
2023/10/22 03:48:36;;;;;;;13.50;5.90;;;;;;;23.51;61.01;101225.08;106421;1262;22648;-65
2023/10/22 03:51:04;;;;;;;13.50;7.10;;;;;;;23.50;61.05;101224.09;106733;1259;25469;-65
2023/10/22 03:53:31;;;;;;;16.50;6.40;;;;;;;23.50;61.24;101223.42;106752;1259;22754;-66
2023/10/22 03:56:00;;;;;;;14.50;6.10;;;;;;;23.49;61.31;101223.44;106900;1269;25456;-64
2023/10/22 03:58:27;;;;;;;11.70;5.60;;;;;;;23.49;61.43;101225.78;106391;1261;25435;-65
2023/10/22 04:00:54;;;;;;;16.00;6.50;;;;;;;23.48;61.46;101230.27;106565;1264;22532;-69
2023/10/22 04:03:22;;;;;;;12.20;6.00;;;;;;;23.48;61.67;101229.91;106695;1262;25377;-67
2023/10/22 04:05:56;;;;;;;12.00;5.70;;;;;;;23.47;61.71;101229.43;106228;1264;25431;-66
2023/10/22 04:08:24;;;;;;;15.00;6.30;;;;;;;23.46;61.63;101230.40;106353;1268;24229;-62
2023/10/22 04:10:51;;;;;;;14.20;6.30;;;;;;;23.47;61.82;101234.59;106341;1259;22576;-69
2023/10/22 04:13:18;;;;;;;13.30;5.60;;;;;;;23.50;61.95;101236.51;106304;1268;25422;-61
2023/10/22 04:15:46;;;;;;;13.20;6.70;;;;;;;23.49;62.00;101237.26;106412;1261;25431;-62
2023/10/22 04:18:13;;;;;;;12.00;5.90;;;;;;;23.49;62.04;101234.47;106471;1271;23767;-68
2023/10/22 04:20:41;;;;;;;15.40;6.80;;;;;;;23.48;62.19;101235.38;106661;1260;25294;-61
2023/10/22 04:23:11;;;;;;;15.50;5.80;;;;;;;23.48;62.30;101233.46;106739;1262;25386;-69
2023/10/22 04:25:40;;;;;;;15.80;6.90;;;;;;;23.47;62.19;101235.99;106725;1275;25469;-66
2023/10/22 04:28:07;;;;;;;13.00;6.10;;;;;;;23.47;62.18;101234.95;106755;1259;26532;-65
2023/10/22 04:30:40;;;;;;;13.30;6.40;;;;;;;23.46;62.34;101235.88;106483;1268;25385;-64
2023/10/22 04:33:08;;;;;;;16.40;7.00;;;;;;;23.45;62.42;101238.08;106279;1280;25278;-65
2023/10/22 04:35:36;;;;;;;12.20;5.70;;;;;;;23.45;62.48;101236.86;106471;1267;25347;-64
2023/10/22 04:38:02;;;;;;;12.20;6.10;;;;;;;23.43;62.53;101234.12;106775;1259;22532;-67
2023/10/22 04:40:33;;;;;;;15.10;6.60;;;;;;;23.44;62.56;101241.13;106684;1262;25450;-63
2023/10/22 04:43:00;;;;;;;12.60;6.00;;;;;;;23.44;62.82;101240.63;106666;1272;25319;-65
2023/10/22 04:45:28;;;;;;;15.30;6.40;;;;;;;23.44;62.89;101239.77;106623;1260;24315;-61
2023/10/22 04:47:55;;;;;;;17.20;7.40;;;;;;;23.41;63.05;101240.81;106653;1260;25419;-62
2023/10/22 04:50:24;;;;;;;13.90;5.80;;;;;;;23.40;63.20;101244.05;106815;1257;25383;-64
2023/10/22 04:52:52;;;;;;;9.50;5.70;;;;;;;23.41;63.07;101244.58;106409;1265;25358;-66
2023/10/22 04:55:19;;;;;;;15.60;7.10;;;;;;;23.40;63.15;101243.89;106694;1262;25498;-63
2023/10/22 04:57:46;;;;;;;14.90;6.00;;;;;;;23.41;63.29;101241.70;106310;1267;25355;-64
2023/10/22 05:00:14;;;;;;;18.40;6.50;;;;;;;23.43;63.35;101245.51;106773;1262;25409;-70
2023/10/22 05:02:41;;;;;;;11.80;6.40;;;;;;;23.42;63.46;101250.11;106829;1261;25405;-61
2023/10/22 05:05:08;;;;;;;12.80;6.50;;;;;;;23.43;63.56;101253.27;106391;1265;25361;-64
2023/10/22 05:07:35;;;;;;;12.00;6.20;;;;;;;23.45;63.53;101256.34;106715;1257;25450;-60
2023/10/22 05:10:03;;;;;;;13.60;5.60;;;;;;;23.45;63.65;101257.89;106799;1259;25438;-64
2023/10/22 05:12:30;;;;;;;12.60;6.30;;;;;;;23.47;63.66;101256.92;106371;1256;23296;-61
2023/10/22 05:14:57;;;;;;;11.70;6.50;;;;;;;23.48;63.69;101260.70;106667;1258;25581;-66
2023/10/22 05:17:27;;;;;;;11.90;6.40;;;;;;;23.51;63.96;101264.08;106347;1272;25354;-61
2023/10/22 05:19:54;;;;;;;11.80;6.90;;;;;;;23.53;63.93;101270.33;106734;1261;25373;-62
2023/10/22 05:22:21;;;;;;;11.50;6.10;;;;;;;23.56;64.05;101274.70;106715;1259;25376;-68
2023/10/22 05:24:48;;;;;;;9.90;6.20;;;;;;;23.58;64.02;101280.41;106756;1260;24377;-62
2023/10/22 05:27:16;;;;;;;13.90;6.80;;;;;;;23.61;63.83;101287.99;106719;1265;22533;-63
2023/10/22 05:29:46;;;;;;;12.80;6.80;;;;;;;23.63;64.02;101289.43;106724;1268;22655;-63
2023/10/22 05:32:16;;;;;;;14.60;6.60;;;;;;;23.63;63.95;101291.05;106728;1259;24362;-66
2023/10/22 05:34:43;;;;;;;11.80;5.70;;;;;;;23.63;63.77;101298.80;106657;1262;25389;-63
2023/10/22 05:37:11;;;;;;;17.30;6.40;;;;;;;23.64;63.79;101304.23;106724;1262;25498;-67
2023/10/22 05:39:38;;;;;;;11.50;6.40;;;;;;;23.66;63.75;101308.55;106706;1270;22662;-60
2023/10/22 05:42:06;;;;;;;16.20;5.90;;;;;;;23.68;63.63;101311.11;106524;1262;25425;-63
2023/10/22 05:44:37;;;;;;;11.80;6.10;;;;;;;23.70;63.89;101313.76;106316;1261;24306;-63
2023/10/22 05:47:05;;;;;;;10.40;5.90;;;;;;;23.72;63.92;101312.52;106320;1261;25507;-63
2023/10/22 05:49:32;;;;;;;11.30;7.00;;;;;;;23.75;64.00;101318.71;106106;1271;25358;-65
2023/10/22 05:51:59;;;;;;;11.80;6.90;;;;;;;23.78;64.10;101315.66;106413;1259;24232;-63
2023/10/22 05:54:26;;;;;;;11.10;6.10;;;;;;;23.83;64.16;101309.34;106690;1268;22539;-69
2023/10/22 05:56:53;;;;;;;10.10;5.90;;;;;;;23.87;64.17;101309.22;106382;1278;25438;-68
2023/10/22 05:59:20;;;;;;;11.50;7.10;;;;;;;23.91;64.21;101304.16;106834;1262;25335;-69
2023/10/22 06:01:47;;;;;;;13.10;6.10;;;;;;;23.96;64.26;101300.09;106824;1262;25358;-65
2023/10/22 06:04:14;;;;;;;13.50;7.00;;;;;;;24.02;64.33;101301.45;106839;1262;25435;-65
2023/10/22 06:06:42;;;;;;;14.10;6.50;;;;;;;24.07;64.29;101304.30;106800;1261;24229;-67
2023/10/22 06:09:11;;;;;;;17.60;7.40;;;;;;;24.11;64.50;101306.48;106692;1262;25497;-69
2023/10/22 06:11:39;;;;;;;19.60;7.20;;;;;;;24.17;64.35;101307.52;106721;1262;24042;-63
2023/10/22 06:14:06;;;;;;;12.10;6.90;;;;;;;24.21;64.10;101311.81;106758;1272;25372;-65
2023/10/22 06:16:35;;;;;;;17.70;7.00;;;;;;;24.26;63.67;101319.14;106681;1268;26507;-64
2023/10/22 06:19:03;;;;;;;14.70;6.10;;;;;;;24.29;63.43;101320.30;106371;1272;25435;-64
2023/10/22 06:21:31;;;;;;;12.80;5.80;;;;;;;24.33;63.36;101322.16;106772;1261;25418;-66
2023/10/22 06:23:57;;;;;;;15.20;6.40;;;;;;;24.36;63.03;101320.71;106716;1267;24285;-62
2023/10/22 06:26:25;;;;;;;15.50;6.50;;;;;;;24.40;62.96;101317.48;106665;1262;25389;-64
2023/10/22 06:28:52;;;;;;;13.00;6.10;;;;;;;24.43;62.85;101316.17;106732;1262;25385;-68
2023/10/22 06:31:19;;;;;;;12.00;5.90;;;;;;;24.50;62.77;101317.45;106772;1266;25508;-65
2023/10/22 06:33:46;;;;;;;12.90;6.60;;;;;;;24.55;62.62;101325.17;106674;1262;25386;-67
2023/10/22 06:36:18;;;;;;;11.50;6.30;;;;;;;24.60;62.44;101342.08;106448;1267;25472;-68
2023/10/22 06:38:46;;;;;;;13.40;6.40;;;;;;;24.63;62.12;101345.58;106726;1262;22537;-64
2023/10/22 06:41:20;;;;;;;15.40;7.30;;;;;;;24.72;62.01;101333.07;106767;1265;25357;-71
2023/10/22 06:43:47;;;;;;;13.20;6.40;;;;;;;24.72;61.97;101328.06;106723;1265;25513;-68
2023/10/22 06:46:14;;;;;;;13.70;7.10;;;;;;;24.69;62.16;101321.58;106769;1266;25358;-71
2023/10/22 06:48:42;;;;;;;12.40;6.40;;;;;;;24.71;61.84;101321.25;106712;1259;25352;-68
2023/10/22 06:51:15;;;;;;;13.80;5.50;;;;;;;24.74;62.00;101319.78;106466;1272;25386;-64
2023/10/22 06:53:49;;;;;;;13.60;6.60;;;;;;;24.77;61.99;101327.73;106670;1262;25203;-69
2023/10/22 06:56:16;;;;;;;13.90;6.20;;;;;;;24.81;61.88;101318.08;106735;1262;25357;-65
2023/10/22 06:58:44;;;;;;;11.00;6.50;;;;;;;24.83;61.88;101319.12;106834;1268;25498;-71
2023/10/22 07:01:12;;;;;;;17.90;6.60;;;;;;;24.86;61.95;101319.25;106365;1274;25295;-68
2023/10/22 07:03:41;;;;;;;15.20;6.50;;;;;;;24.89;61.92;101310.01;106498;1275;25387;-66
2023/10/22 07:06:08;;;;;;;13.30;5.60;;;;;;;24.92;61.87;101308.16;106451;1265;23922;-68
2023/10/22 07:08:36;;;;;;;9.70;5.10;;;;;;;24.94;61.68;101306.58;106785;1262;25352;-65
2023/10/22 07:11:03;;;;;;;15.30;6.60;;;;;;;24.99;61.62;101308.37;106640;1262;25361;-68
2023/10/22 07:13:30;;;;;;;12.80;6.20;;;;;;;25.00;61.47;101315.77;106371;1268;22527;-71
2023/10/22 07:15:57;;;;;;;11.80;5.90;;;;;;;25.01;61.51;101318.85;106572;1271;25428;-65
2023/10/22 07:18:24;;;;;;;10.60;6.20;;;;;;;25.03;61.59;101312.85;106453;1271;25382;-67
2023/10/22 07:20:51;;;;;;;13.60;6.20;;;;;;;25.05;61.33;101311.14;106267;1269;25382;-67
2023/10/22 07:23:18;;;;;;;11.80;6.10;;;;;;;25.07;61.36;101302.11;106283;1259;25453;-65
2023/10/22 07:25:46;;;;;;;11.10;6.40;;;;;;;25.10;61.30;101300.48;106356;1262;23873;-73
2023/10/22 07:28:15;;;;;;;11.00;6.10;;;;;;;25.12;61.20;101310.63;106482;1262;25435;-68
2023/10/22 07:30:49;;;;;;;15.10;6.00;;;;;;;25.15;61.00;101301.02;106343;1268;25459;-65
2023/10/22 07:33:17;;;;;;;13.80;5.80;;;;;;;25.17;60.81;101310.59;106335;1267;24249;-69
2023/10/22 07:35:54;;;;;;;12.10;5.50;;;;;;;25.19;60.55;101299.83;106489;1260;25290;-66
2023/10/22 07:38:22;;;;;;;10.20;5.50;;;;;;;25.21;60.41;101313.86;106742;1266;24216;-68
2023/10/22 07:40:50;;;;;;;12.60;5.50;;;;;;;25.23;60.23;101303.42;106341;1262;22556;-65
2023/10/22 07:43:17;;;;;;;9.40;5.50;;;;;;;25.25;60.02;101305.73;106470;1265;25379;-66
2023/10/22 07:45:45;;;;;;;11.30;6.30;;;;;;;25.28;59.72;101302.86;106320;1271;25386;-66
2023/10/22 07:48:12;;;;;;;13.00;6.50;;;;;;;25.31;59.53;101304.56;106509;1272;25376;-69
2023/10/22 07:50:40;;;;;;;12.90;5.60;;;;;;;25.34;59.19;101300.45;106761;1262;25361;-71
2023/10/22 07:53:07;;;;;;;11.20;5.20;;;;;;;25.37;58.86;101302.88;106700;1260;22538;-71
2023/10/22 07:55:34;;;;;;;11.20;5.60;;;;;;;25.39;58.41;101297.55;106715;1261;22530;-71
2023/10/22 07:58:01;;;;;;;10.20;5.80;;;;;;;25.41;58.20;101294.41;106476;1276;25519;-69
2023/10/22 08:00:28;;;;;;;10.40;5.10;;;;;;;25.43;58.00;101294.27;106362;1268;25373;-66
2023/10/22 08:02:57;;;;;;;10.80;5.10;;;;;;;25.45;57.85;101293.54;106362;1277;25347;-67
2023/10/22 08:05:24;;;;;;;8.70;5.10;;;;;;;25.48;58.01;101286.77;106466;1266;25383;-72
2023/10/22 08:07:51;;;;;;;10.30;5.00;;;;;;;25.51;58.16;101280.35;106329;1264;25399;-68
2023/10/22 08:10:18;;;;;;;12.00;5.90;;;;;;;25.54;58.07;101279.72;106430;1266;25407;-66
2023/10/22 08:12:45;;;;;;;15.40;6.00;;;;;;;25.59;58.13;101279.01;106742;1261;24186;-69
2023/10/22 08:15:12;;;;;;;14.20;5.70;;;;;;;25.64;57.88;101281.46;106307;1274;25376;-69
2023/10/22 08:17:39;;;;;;;13.40;5.30;;;;;;;25.68;57.68;101282.21;106785;1262;25444;-66
2023/10/22 08:20:07;;;;;;;14.10;5.60;;;;;;;25.71;57.57;101289.05;106829;1262;23327;-67
2023/10/22 08:22:34;;;;;;;10.60;5.80;;;;;;;25.76;57.65;101302.89;106614;1262;22533;-72
2023/10/22 08:25:02;;;;;;;11.30;5.40;;;;;;;25.81;57.36;101317.84;106390;1266;25287;-69
2023/10/22 08:27:29;;;;;;;10.40;5.30;;;;;;;25.85;57.15;101322.31;106446;1265;25507;-68
2023/10/22 08:29:56;;;;;;;14.20;5.20;;;;;;;25.88;57.04;101311.80;106734;1262;25375;-69
2023/10/22 08:32:23;;;;;;;11.60;5.60;;;;;;;25.91;56.96;101319.36;106774;1263;25482;-68
2023/10/22 08:34:50;;;;;;;13.20;5.30;;;;;;;25.95;56.96;101302.55;106712;1262;25357;-68
2023/10/22 08:37:17;;;;;;;12.10;5.40;;;;;;;25.99;56.93;101315.05;106511;1272;25570;-67
2023/10/22 08:39:44;;;;;;;13.60;5.50;;;;;;;26.04;56.62;101312.02;106760;1259;25435;-68
2023/10/22 08:42:19;;;;;;;9.50;5.10;;;;;;;26.13;56.23;101314.51;106719;1262;25386;-69
2023/10/22 08:44:48;;;;;;;12.00;4.90;;;;;;;26.17;55.89;101309.40;106796;1269;25386;-70
2023/10/22 08:47:15;;;;;;;11.30;4.70;;;;;;;26.11;55.92;101317.13;106724;1262;24260;-69
2023/10/22 08:49:43;;;;;;;10.60;5.10;;;;;;;26.13;55.76;101303.81;106408;1273;25434;-69
2023/10/22 08:52:10;;;;;;;10.30;5.50;;;;;;;26.16;55.64;101317.64;106438;1262;24216;-75
2023/10/22 08:54:39;;;;;;;11.70;5.50;;;;;;;26.20;55.38;101306.33;106305;1265;23226;-75
2023/10/22 08:57:06;;;;;;;11.70;6.10;;;;;;;26.22;55.24;101301.85;106283;1270;25284;-70
2023/10/22 08:59:34;;;;;;;15.20;5.60;;;;;;;26.26;55.06;101301.40;106372;1263;25387;-69
2023/10/22 09:02:03;;;;;;;13.10;5.50;;;;;;;26.28;54.90;101305.48;106688;1260;23915;-70
2023/10/22 09:04:33;;;;;;;9.90;5.70;;;;;;;26.31;54.78;101310.59;106755;1270;25383;-69
2023/10/22 09:07:00;;;;;;;11.00;5.60;;;;;;;26.35;54.74;101308.67;106776;1262;24271;-68
2023/10/22 09:09:29;;;;;;;10.90;5.60;;;;;;;26.37;54.71;101305.13;106503;1278;25460;-69
2023/10/22 09:11:56;;;;;;;13.00;5.50;;;;;;;26.39;54.80;101297.61;106779;1262;22528;-69
2023/10/22 09:14:24;;;;;;;13.10;6.00;;;;;;;26.42;54.58;101296.51;106725;1268;25530;-68
2023/10/22 09:16:51;;;;;;;9.80;4.70;;;;;;;26.44;54.50;101298.29;106793;1261;22546;-69
2023/10/22 09:19:35;;;;;;;10.40;6.00;;;;;;;26.47;54.25;101293.48;106766;1262;25347;-69
2023/10/22 09:22:05;;;;;;;13.50;5.10;;;;;;;26.50;53.94;101294.27;106738;1261;24279;-70
2023/10/22 09:24:34;;;;;;;7.90;4.80;;;;;;;26.52;53.63;101291.44;106615;1262;25360;-69
2023/10/22 09:27:01;;;;;;;11.20;5.80;;;;;;;26.54;53.43;101289.48;106621;1268;22541;-69
2023/10/22 09:29:31;;;;;;;10.70;5.50;;;;;;;26.58;53.21;101292.38;106738;1262;25336;-68
2023/10/22 09:31:59;;;;;;;17.50;5.10;;;;;;;26.61;52.99;101289.27;106380;1265;25376;-68
2023/10/22 09:34:28;;;;;;;14.80;5.40;;;;;;;26.64;52.86;101286.20;106733;1262;23879;-69
2023/10/22 09:36:55;;;;;;;14.50;6.10;;;;;;;26.67;52.79;101284.02;106434;1261;25434;-69
2023/10/22 09:39:35;;;;;;;7.90;4.70;;;;;;;26.69;52.56;101280.09;106326;1268;25383;-73
2023/10/22 09:42:05;;;;;;;9.10;5.00;;;;;;;26.73;52.37;101275.17;106264;1262;24333;-74
2023/10/22 09:44:40;;;;;;;11.90;4.80;;;;;;;26.83;52.02;101273.11;106529;1262;25358;-70
2023/10/22 09:47:08;;;;;;;14.00;5.20;;;;;;;26.91;51.69;101272.60;106595;1262;24206;-68
2023/10/22 09:49:35;;;;;;;7.80;5.00;;;;;;;26.93;51.69;101275.34;106522;1259;25336;-69
2023/10/22 09:52:04;;;;;;;13.70;5.50;;;;;;;26.94;51.50;101268.30;106248;1276;24247;-74
2023/10/22 09:54:38;;;;;;;13.90;5.20;;;;;;;26.95;51.32;101263.73;106325;1263;24283;-68
2023/10/22 09:57:08;;;;;;;17.30;5.50;;;;;;;26.96;51.06;101260.77;106695;1262;22536;-70
2023/10/22 09:59:36;;;;;;;10.20;5.40;;;;;;;26.98;51.13;101254.61;106710;1262;25287;-70
2023/10/22 10:02:04;;;;;;;9.50;4.50;;;;;;;26.99;50.96;101251.29;106501;1268;22532;-70
2023/10/22 10:04:35;;;;;;;12.70;5.00;;;;;;;27.01;50.83;101252.18;106790;1262;25368;-70
2023/10/22 10:07:03;;;;;;;12.50;4.90;;;;;;;27.03;50.75;101247.59;106750;1262;24232;-70
2023/10/22 10:09:30;;;;;;;9.90;4.50;;;;;;;27.04;50.41;101248.71;106471;1265;25354;-69
2023/10/22 10:11:59;;;;;;;10.30;4.80;;;;;;;27.06;50.37;101248.54;106738;1262;25509;-69
2023/10/22 10:14:49;;;;;;;8.70;4.70;;;;;;;27.08;50.16;101242.90;106599;1263;23252;-69
2023/10/22 10:17:17;;;;;;;11.20;5.00;;;;;;;27.09;50.05;101246.88;106415;1267;23870;-70
2023/10/22 10:19:45;;;;;;;10.00;4.90;;;;;;;27.11;50.11;101242.82;106873;1268;22590;-70
2023/10/22 10:22:39;;;;;;;10.90;5.30;;;;;;;27.13;50.15;101240.52;106746;1259;24344;-69
2023/10/22 10:25:28;;;;;;;10.50;4.80;;;;;;;27.15;49.93;101235.70;106367;1261;25373;-68
2023/10/22 10:27:56;;;;;;;11.50;5.20;;;;;;;27.17;49.81;101231.03;106294;1273;25516;-70
2023/10/22 10:30:23;;;;;;;10.70;4.40;;;;;;;27.20;49.73;101227.65;106215;1265;25406;-69
2023/10/22 10:32:50;;;;;;;12.40;4.70;;;;;;;27.22;49.57;101228.51;106314;1262;23250;-71
2023/10/22 10:35:45;;;;;;;10.50;4.70;;;;;;;27.24;49.15;101224.41;106381;1262;22627;-68
2023/10/22 10:38:15;;;;;;;9.80;5.00;;;;;;;27.23;48.76;101220.73;106234;1271;25340;-69
2023/10/22 10:40:42;;;;;;;11.50;5.00;;;;;;;27.21;48.71;101223.05;106301;1269;22533;-70
2023/10/22 10:43:09;;;;;;;9.30;5.40;;;;;;;27.19;48.69;101223.05;106311;1272;25336;-68
2023/10/22 10:45:41;;;;;;;10.60;4.90;;;;;;;27.21;48.59;101224.34;106417;1277;25376;-70
2023/10/22 10:48:53;;;;;;;9.20;4.80;;;;;;;27.38;48.12;101223.98;106521;1275;22662;-68
2023/10/22 10:51:24;;;;;;;13.10;5.30;;;;;;;27.25;48.45;101229.86;106161;1269;25358;-68
2023/10/22 10:54:00;;;;;;;9.10;4.90;;;;;;;27.11;48.96;101223.75;106160;1269;25518;-70
2023/10/22 10:56:48;;;;;;;8.80;4.90;;;;;;;27.07;48.86;101218.72;106108;1278;25443;-68
2023/10/22 10:59:28;;;;;;;10.80;5.00;;;;;;;27.05;48.82;101209.29;106112;1281;25367;-69
2023/10/22 11:02:08;;;;;;;10.50;4.90;;;;;;;27.05;49.04;101207.11;106114;1268;25426;-75
2023/10/22 11:04:36;;;;;;;16.10;6.10;;;;;;;27.07;49.12;101207.55;106148;1269;25512;-68
2023/10/22 11:07:04;;;;;;;10.60;5.00;;;;;;;27.09;49.16;101213.74;106210;1268;25442;-69
2023/10/22 11:09:49;;;;;;;13.10;6.30;;;;;;;27.12;49.32;101205.27;106054;1268;25377;-69
2023/10/22 11:12:18;;;;;;;10.90;5.30;;;;;;;27.14;49.28;101213.50;105815;1286;25414;-71
2023/10/22 11:14:53;;;;;;;9.50;5.70;;;;;;;27.18;49.07;101216.42;106127;1270;25476;-75
2023/10/22 11:17:20;;;;;;;12.10;5.80;;;;;;;27.18;48.88;101222.21;106138;1269;24279;-69